Time;durP1;ratioP1;P1;durP2;ratioP2;P2;SDS_P1;SDS_P2;PMS_P1;PMS_P2;Temp;Humidity;BMP_temperature;BMP_pressure;BME280_temperature;BME280_humidity;BME280_pressure;Samples;Min_cycle;Max_cycle;Signal;HPM_P1;HPM_P2
2022/01/01 00:00:11;;;;;;;;;;;;;;;17.70;58.93;101324.09;4953479;28;6877;-71
2022/01/01 00:02:37;;;;;;;;;;;;;;;17.70;59.11;101316.31;4956470;28;6878;-71
2022/01/01 00:05:05;;;;;;;;;;;;;;;17.72;59.39;101322.41;4957060;28;6804;-71
2022/01/01 00:07:31;;;;;;;;;;;;;;;17.72;59.14;101325.91;4957151;28;7015;-71
2022/01/01 00:09:57;;;;;;;;;;;;;;;17.72;59.12;101325.00;4954774;28;7117;-71
2022/01/01 00:12:23;;;;;;;;;;;;;;;17.72;59.07;101319.84;4957821;28;6819;-71
2022/01/01 00:14:49;;;;;;;;;;;;;;;17.74;59.63;101323.34;4954280;28;7183;-71
2022/01/01 00:17:15;;;;;;;;;;;;;;;17.71;59.25;101323.25;4955569;28;6792;-71
2022/01/01 00:19:40;;;;;;;;;;;;;;;17.72;59.19;101322.41;4941126;28;6813;-71
2022/01/01 00:22:07;;;;;;;;;;;;;;;17.73;59.23;101327.66;4955880;28;6800;-71
2022/01/01 00:24:36;;;;;;;;;;;;;;;17.74;58.94;101325.94;4942335;28;8091;-71
2022/01/01 00:27:02;;;;;;;;;;;;;;;17.73;58.79;101330.25;4950824;28;6923;-71
2022/01/01 00:29:28;;;;;;;;;;;;;;;17.75;59.01;101327.69;4954864;28;6861;-71
2022/01/01 00:31:54;;;;;;;;;;;;;;;17.76;59.00;101329.47;4960691;28;6995;-71
2022/01/01 00:34:20;;;;;;;;;;;;;;;17.76;58.92;101316.50;4961840;28;7182;-71
2022/01/01 00:36:46;;;;;;;;;;;;;;;17.78;58.69;101320.03;4963944;28;6879;-71
2022/01/01 00:39:11;;;;;;;;;;;;;;;17.78;58.52;101314.84;4960025;28;7209;-71
2022/01/01 00:41:37;;;;;;;;;;;;;;;17.78;58.87;101317.44;4977406;28;7355;-71
2022/01/01 00:44:04;;;;;;;;;;;;;;;17.80;58.75;101320.06;4960991;28;6940;-71
2022/01/01 00:46:30;;;;;;;;;;;;;;;17.79;58.47;101316.63;4957893;28;6811;-71
2022/01/01 00:48:56;;;;;;;;;;;;;;;17.81;58.47;101316.66;4943057;28;6868;-71
2022/01/01 00:51:22;;;;;;;;;;;;;;;17.80;58.75;101318.38;4957302;28;7751;-71
2022/01/01 00:53:49;;;;;;;;;;;;;;;17.79;58.77;101319.22;4939194;28;7182;-71
2022/01/01 00:56:14;;;;;;;;;;;;;;;17.80;58.07;101318.38;4943009;28;7013;-71
2022/01/01 00:58:40;;;;;;;;;;;;;;;17.82;58.59;101316.72;4961419;28;6800;-71
2022/01/01 01:01:06;;;;;;;;;;;;;;;17.83;58.21;101318.47;4959109;28;6891;-71
2022/01/01 01:03:32;;;;;;;;;;;;;;;17.83;58.67;101326.25;4959082;28;6872;-71
2022/01/01 01:06:00;;;;;;;;;;;;;;;17.83;58.35;101320.19;4954615;28;6883;-71
2022/01/01 01:08:27;;;;;;;;;;;;;;;17.83;58.61;101323.66;4960303;28;7161;-71
2022/01/01 01:10:56;;;;;;;;;;;;;;;17.84;58.16;101325.41;4958140;28;7272;-71
2022/01/01 01:13:24;;;;;;;;;;;;;;;17.87;58.03;101322.03;4960405;28;6832;-71
2022/01/01 01:15:50;;;;;;;;;;;;;;;17.87;58.02;101320.34;4958148;28;6816;-71
2022/01/01 01:18:16;;;;;;;;;;;;;;;17.88;57.96;101322.09;4958633;28;6808;-71
2022/01/01 01:20:42;;;;;;;;;;;;;;;17.89;58.09;101325.56;4957176;28;7466;-71
2022/01/01 01:23:08;;;;;;;;;;;;;;;17.89;58.11;101325.56;4960050;28;6800;-71
2022/01/01 01:25:39;;;;;;;;;;;;;;;17.89;58.01;101323.88;4958191;28;6939;-71
2022/01/01 01:28:10;;;;;;;;;;;;;;;17.89;58.21;101328.16;4954852;28;7075;-71
2022/01/01 01:30:38;;;;;;;;;;;;;;;17.88;58.05;101327.28;4959975;28;6815;-71
2022/01/01 01:33:05;;;;;;;;;;;;;;;17.88;58.32;101327.28;4956028;28;6889;-71
2022/01/01 01:35:31;;;;;;;;;;;;;;;17.89;57.60;101328.16;4957616;28;6824;-71
2022/01/01 01:37:57;;;;;;;;;;;;;;;17.88;57.68;101316.91;4957787;28;6812;-71
2022/01/01 01:40:23;;;;;;;;;;;;;;;17.89;57.82;101313.50;4933279;28;7121;-71
2022/01/01 01:42:49;;;;;;;;;;;;;;;17.87;58.18;101319.44;4939778;28;6812;-71
2022/01/01 01:45:17;;;;;;;;;;;;;;;17.86;57.68;101334.13;4950741;28;6804;-71
2022/01/01 01:47:45;;;;;;;;;;;;;;;17.86;58.15;101336.72;4954657;28;7881;-71
2022/01/01 01:50:13;;;;;;;;;;;;;;;17.88;57.81;101344.56;4939879;28;6816;-71
2022/01/01 01:52:43;;;;;;;;;;;;;;;17.90;58.06;101348.97;4957831;28;6815;-71
2022/01/01 01:55:11;;;;;;;;;;;;;;;17.90;58.16;101351.56;4956268;28;6978;-71
2022/01/01 01:57:41;;;;;;;;;;;;;;;17.89;58.05;101349.78;4957247;28;7015;-71
2022/01/01 02:01:00;;;;;;;;;;;;;;;17.91;57.46;101348.13;4939532;28;7809;-71
2022/01/01 02:03:05;;;;;;;;;;;;;;;17.92;57.90;101343.84;4945113;28;7014;-71
2022/01/01 02:05:35;;;;;;;;;;;;;;;17.93;57.74;101344.69;4928966;28;7937;-71
2022/01/01 02:08:02;;;;;;;;;;;;;;;17.93;57.92;101344.69;4957575;28;7612;-71
2022/01/01 02:10:28;;;;;;;;;;;;;;;17.90;58.11;101351.56;4941823;28;7007;-72
2022/01/01 02:12:56;;;;;;;;;;;;;;;17.91;57.90;101348.13;4960086;28;7174;-71
2022/01/01 02:15:57;;;;;;;;;;;;;;;17.90;57.59;101348.97;4973973;28;6800;-71
2022/01/01 02:18:23;;;;;;;;;;;;;;;17.89;57.48;101348.91;4945255;28;7115;-71
2022/01/01 02:20:49;;;;;;;;;;;;;;;17.88;57.42;101348.03;4959989;28;6792;-71
2022/01/01 02:23:22;;;;;;;;;;;;;;;17.87;57.41;101343.69;4959071;28;6820;-71
2022/01/01 02:25:56;;;;;;;;;;;;;;;17.86;57.82;101344.50;4943954;28;6990;-71
2022/01/01 02:28:23;;;;;;;;;;;;;;;17.90;57.24;101355.84;4943897;28;6808;-71
2022/01/01 02:30:50;;;;;;;;;;;;;;;17.87;57.44;101346.28;4943436;28;6788;-71
2022/01/01 02:33:16;;;;;;;;;;;;;;;17.90;57.59;101359.34;4960060;28;6791;-71
2022/01/01 02:35:42;;;;;;;;;;;;;;;17.87;57.50;101360.94;4941472;28;7396;-71
2022/01/01 02:38:08;;;;;;;;;;;;;;;17.85;56.89;101358.28;4956639;28;7950;-71
2022/01/01 02:40:35;;;;;;;;;;;;;;;17.84;57.52;101346.16;4924370;28;7456;-71
2022/01/01 02:43:00;;;;;;;;;;;;;;;17.82;56.95;101355.59;4952802;28;6812;-71
2022/01/01 02:45:28;;;;;;;;;;;;;;;17.79;56.84;101352.91;4954098;28;6788;-71
2022/01/01 02:47:54;;;;;;;;;;;;;;;17.79;57.51;101346.84;4950120;28;7232;-71
2022/01/01 02:50:20;;;;;;;;;;;;;;;17.78;57.03;101345.97;4939085;28;6968;-71
2022/01/01 02:52:47;;;;;;;;;;;;;;;17.77;57.39;101352.00;4940740;28;7244;-71
2022/01/01 02:55:13;;;;;;;;;;;;;;;17.74;57.15;101344.09;4955225;28;6900;-71
2022/01/01 02:57:39;;;;;;;;;;;;;;;17.74;56.70;101349.28;4954231;28;7094;-71
2022/01/01 03:00:06;;;;;;;;;;;;;;;17.71;57.03;101355.22;4948877;28;6792;-71
2022/01/01 03:02:32;;;;;;;;;;;;;;;17.69;57.28;101348.25;4952989;28;6808;-71
2022/01/01 03:04:57;;;;;;;;;;;;;;;17.68;57.03;101346.50;4960752;28;6946;-71
2022/01/01 03:07:23;;;;;;;;;;;;;;;17.68;57.15;101349.09;4959216;28;6845;-71
2022/01/01 03:09:49;;;;;;;;;;;;;;;17.68;56.85;101362.06;4960845;28;6811;-71
2022/01/01 03:12:16;;;;;;;;;;;;;;;17.66;56.94;101346.44;4935411;28;7688;-71
2022/01/01 03:14:42;;;;;;;;;;;;;;;17.65;56.79;101352.44;4961190;28;7009;-71
2022/01/01 03:17:08;;;;;;;;;;;;;;;17.66;56.89;101361.09;4960940;28;6971;-71
2022/01/01 03:19:35;;;;;;;;;;;;;;;17.65;57.20;101343.78;4958892;28;6966;-71
2022/01/01 03:22:02;;;;;;;;;;;;;;;17.64;56.91;101353.28;4955855;28;6824;-71
2022/01/01 03:24:28;;;;;;;;;;;;;;;17.64;57.05;101350.69;4959009;28;6945;-71
2022/01/01 03:26:53;;;;;;;;;;;;;;;17.65;56.72;101356.75;4941807;28;6795;-71
2022/01/01 03:29:19;;;;;;;;;;;;;;;17.65;56.79;101348.97;4958746;28;7147;-71
2022/01/01 03:31:45;;;;;;;;;;;;;;;17.66;56.52;101342.94;4956772;28;7072;-71
2022/01/01 03:34:11;;;;;;;;;;;;;;;17.67;56.38;101334.34;4960938;28;7244;-71
2022/01/01 03:36:38;;;;;;;;;;;;;;;17.67;56.18;101337.81;4957383;28;6824;-71
2022/01/01 03:39:06;;;;;;;;;;;;;;;17.66;56.56;101329.97;4960747;28;7214;-71
2022/01/01 03:41:32;;;;;;;;;;;;;;;17.65;56.62;101328.22;4956073;28;7304;-71
2022/01/01 03:43:58;;;;;;;;;;;;;;;17.66;56.46;101325.69;4959708;28;6988;-71
2022/01/01 03:46:24;;;;;;;;;;;;;;;17.65;56.09;101318.75;4939388;28;8490;-71
2022/01/01 03:48:49;;;;;;;;;;;;;;;17.65;56.33;101313.56;4960490;28;8000;-70
2022/01/01 03:51:15;;;;;;;;;;;;;;;17.66;56.27;101314.44;4960799;28;6951;-70
2022/01/01 03:53:41;;;;;;;;;;;;;;;17.65;55.56;101323.94;4944191;28;7242;-70
2022/01/01 03:56:07;;;;;;;;;;;;;;;17.63;56.23;101318.69;4959368;28;7066;-71
2022/01/01 03:58:33;;;;;;;;;;;;;;;17.65;56.37;101318.75;4964110;28;7138;-71
2022/01/01 04:00:59;;;;;;;;;;;;;;;17.66;55.88;101319.63;4958763;28;6892;-71
2022/01/01 04:03:25;;;;;;;;;;;;;;;17.65;55.64;101320.44;4959652;28;6891;-71
2022/01/01 04:05:50;;;;;;;;;;;;;;;17.65;55.66;101316.16;4960980;28;6899;-71
2022/01/01 04:08:16;;;;;;;;;;;;;;;17.66;56.10;101319.63;4953968;28;6824;-70
2022/01/01 04:10:42;;;;;;;;;;;;;;;17.66;56.24;101323.09;4958916;28;6799;-70
2022/01/01 04:13:10;;;;;;;;;;;;;;;17.65;56.00;101321.34;4961750;28;6867;-70
2022/01/01 04:15:41;;;;;;;;;;;;;;;17.62;55.87;101316.94;4960236;28;7426;-70
2022/01/01 04:18:10;;;;;;;;;;;;;;;17.61;56.34;101314.28;4960009;28;7190;-70
2022/01/01 04:20:36;;;;;;;;;;;;;;;17.58;56.30;101320.25;4962007;28;6819;-70
2022/01/01 04:23:09;;;;;;;;;;;;;;;17.56;56.24;101318.44;4964030;28;8138;-70
2022/01/01 04:25:36;;;;;;;;;;;;;;;17.55;56.17;101327.06;4959500;28;6816;-70
2022/01/01 04:28:02;;;;;;;;;;;;;;;17.53;55.95;101320.91;4961478;28;7231;-70
2022/01/01 04:30:29;;;;;;;;;;;;;;;17.52;55.88;101333.00;4963676;28;6817;-70
2022/01/01 04:32:58;;;;;;;;;;;;;;;17.49;56.34;101327.72;4962233;28;6964;-70
2022/01/01 04:35:25;;;;;;;;;;;;;;;17.48;55.89;101334.59;4959256;28;6860;-70
2022/01/01 04:37:51;;;;;;;;;;;;;;;17.47;56.52;101332.84;4963129;28;6816;-71
2022/01/01 04:40:16;;;;;;;;;;;;;;;17.47;56.27;101335.44;4945884;28;8259;-70
2022/01/01 04:42:42;;;;;;;;;;;;;;;17.47;56.14;101339.72;4962061;28;7303;-70
2022/01/01 04:45:09;;;;;;;;;;;;;;;17.48;56.21;101339.78;4960195;28;7881;-70
2022/01/01 04:47:35;;;;;;;;;;;;;;;17.47;56.04;101339.72;4959678;28;8038;-70
2022/01/01 04:50:03;;;;;;;;;;;;;;;17.48;55.97;101333.75;4959057;28;7207;-70
2022/01/01 04:52:29;;;;;;;;;;;;;;;17.47;56.52;101337.13;4955323;28;7287;-70
2022/01/01 04:54:55;;;;;;;;;;;;;;;17.48;55.96;101341.50;4952805;28;7246;-70
2022/01/01 04:57:25;;;;;;;;;;;;;;;17.48;55.94;101349.28;4955234;28;6811;-70
2022/01/01 04:59:51;;;;;;;;;;;;;;;17.48;55.90;101351.88;4954046;28;6820;-70
2022/01/01 05:02:16;;;;;;;;;;;;;;;17.50;56.12;101347.63;4960187;28;7521;-70
2022/01/01 05:04:42;;;;;;;;;;;;;;;17.50;55.69;101355.41;4956441;28;6784;-70
2022/01/01 05:07:08;;;;;;;;;;;;;;;17.49;55.58;101348.47;4958688;28;7230;-70
2022/01/01 05:09:33;;;;;;;;;;;;;;;17.49;55.60;101348.47;4954746;28;8222;-70
2022/01/01 05:11:59;;;;;;;;;;;;;;;17.50;55.69;101355.41;4954145;28;6813;-70
2022/01/01 05:14:25;;;;;;;;;;;;;;;17.49;55.97;101353.63;4960532;28;6783;-70
2022/01/01 05:16:52;;;;;;;;;;;;;;;17.48;55.67;101349.28;4956668;28;6788;-70
2022/01/01 05:19:18;;;;;;;;;;;;;;;17.50;55.74;101345.03;4958158;28;8095;-70
2022/01/01 05:21:44;;;;;;;;;;;;;;;17.49;55.57;101345.88;4957519;28;7175;-70
2022/01/01 05:24:12;;;;;;;;;;;;;;;17.49;55.35;101348.47;4959350;28;6796;-70
2022/01/01 05:26:38;;;;;;;;;;;;;;;17.48;55.27;101346.69;4955431;28;6808;-70
2022/01/01 05:29:03;;;;;;;;;;;;;;;17.47;55.41;101350.09;4961384;28;7024;-70
2022/01/01 05:31:33;;;;;;;;;;;;;;;17.47;55.43;101361.34;4939366;28;6875;-70
2022/01/01 05:33:59;;;;;;;;;;;;;;;17.45;55.06;101349.16;4960746;28;6820;-70
2022/01/01 05:36:24;;;;;;;;;;;;;;;17.43;55.45;101349.13;4963250;28;7202;-70
2022/01/01 05:38:50;;;;;;;;;;;;;;;17.43;55.18;101343.03;4958567;28;6819;-71
2022/01/01 05:41:16;;;;;;;;;;;;;;;17.41;55.51;101344.72;4958577;28;7833;-71
2022/01/01 05:43:41;;;;;;;;;;;;;;;17.41;55.03;101347.31;4941016;28;6931;-70
2022/01/01 05:46:07;;;;;;;;;;;;;;;17.40;54.96;101343.81;4940280;28;7193;-70
2022/01/01 05:48:33;;;;;;;;;;;;;;;17.40;55.20;101343.81;4956137;28;6812;-70
2022/01/01 05:50:59;;;;;;;;;;;;;;;17.39;55.40;101328.22;4954060;28;6863;-70
2022/01/01 05:53:24;;;;;;;;;;;;;;;17.39;55.03;101348.97;4960063;28;6791;-70
2022/01/01 05:55:50;;;;;;;;;;;;;;;17.39;55.36;101341.19;4953628;28;8090;-70
2022/01/01 05:58:17;;;;;;;;;;;;;;;17.38;55.35;101350.66;4942114;28;7214;-71
2022/01/01 06:00:43;;;;;;;;;;;;;;;17.40;54.91;101345.53;4957114;28;6812;-70
2022/01/01 06:03:09;;;;;;;;;;;;;;;17.40;55.18;101343.81;4954097;28;7595;-70
2022/01/01 06:05:35;;;;;;;;;;;;;;;17.40;55.09;101343.81;4939061;28;6983;-70
2022/01/01 06:08:02;;;;;;;;;;;;;;;17.40;54.93;101345.53;4954978;28;6820;-70
2022/01/01 06:10:28;;;;;;;;;;;;;;;17.40;55.08;101345.53;4953364;28;6816;-70
2022/01/01 06:12:54;;;;;;;;;;;;;;;17.39;55.08;101343.78;4958397;28;8280;-70
2022/01/01 06:15:21;;;;;;;;;;;;;;;17.37;55.28;101343.72;4956606;28;6799;-70
2022/01/01 06:17:47;;;;;;;;;;;;;;;17.35;54.76;101351.44;4955191;28;7911;-70
2022/01/01 06:20:14;;;;;;;;;;;;;;;17.33;55.01;101349.59;4950070;28;6825;-70
2022/01/01 06:22:41;;;;;;;;;;;;;;;17.32;54.78;101351.31;4954143;28;6800;-70
2022/01/01 06:25:07;;;;;;;;;;;;;;;17.29;55.26;101361.59;4957436;28;6812;-70
2022/01/01 06:27:33;;;;;;;;;;;;;;;17.30;55.48;101365.94;4955001;28;7187;-70
2022/01/01 06:29:58;;;;;;;;;;;;;;;17.30;55.34;101367.63;4956219;28;6875;-71
2022/01/01 06:32:24;;;;;;;;;;;;;;;17.30;55.11;101362.47;4955090;28;7199;-70
2022/01/01 06:34:50;;;;;;;;;;;;;;;17.29;55.25;101366.78;4961599;28;6815;-70
2022/01/01 06:37:16;;;;;;;;;;;;;;;17.29;54.98;101371.06;4950849;28;6796;-70
2022/01/01 06:39:42;;;;;;;;;;;;;;;17.29;55.06;101360.69;4952591;28;7002;-70
2022/01/01 06:42:08;;;;;;;;;;;;;;;17.28;55.12;101361.53;4958410;28;6876;-70
2022/01/01 06:44:33;;;;;;;;;;;;;;;17.27;55.17;101368.41;4958101;28;6958;-70
2022/01/01 06:46:59;;;;;;;;;;;;;;;17.26;55.18;101366.66;4958098;28;6820;-70
2022/01/01 06:49:25;;;;;;;;;;;;;;;17.26;54.99;101377.00;4959824;28;6796;-71
2022/01/01 06:51:51;;;;;;;;;;;;;;;17.26;55.06;101378.72;4957850;28;6921;-71
2022/01/01 06:54:16;;;;;;;;;;;;;;;17.24;55.04;101363.13;4959262;28;6879;-70
2022/01/01 06:56:42;;;;;;;;;;;;;;;17.24;55.23;101352.75;4957768;28;8067;-70
2022/01/01 06:59:10;;;;;;;;;;;;;;;17.23;55.10;101356.19;4959270;28;7027;-70
2022/01/01 07:01:37;;;;;;;;;;;;;;;17.24;55.30;101359.63;4959775;28;6891;-70
2022/01/01 07:04:06;;;;;;;;;;;;;;;17.21;55.50;101355.25;4961469;28;6812;-70
2022/01/01 07:06:33;;;;;;;;;;;;;;;17.20;55.36;101361.25;4941466;28;7291;-70
2022/01/01 07:09:00;;;;;;;;;;;;;;;17.19;55.01;101369.81;4957350;28;7071;-70
2022/01/01 07:11:25;;;;;;;;;;;;;;;17.17;55.58;101361.13;4955857;28;7267;-70
2022/01/01 07:13:52;;;;;;;;;;;;;;;17.17;55.66;101376.66;4958121;28;6764;-71
2022/01/01 07:16:20;;;;;;;;;;;;;;;17.16;55.37;101364.56;4958129;28;7266;-71
2022/01/01 07:18:46;;;;;;;;;;;;;;;17.14;55.56;101368.81;4957009;28;7035;-71
2022/01/01 07:21:11;;;;;;;;;;;;;;;17.14;55.89;101384.34;4947386;28;6776;-71
2022/01/01 07:23:37;;;;;;;;;;;;;;;17.13;55.55;101385.16;4956962;28;7925;-71
2022/01/01 07:26:03;;;;;;;;;;;;;;;17.11;55.57;101384.25;4951429;28;7202;-70
2022/01/01 07:28:28;;;;;;;;;;;;;;;17.11;55.65;101392.88;4954731;28;6988;-70
2022/01/01 07:30:54;;;;;;;;;;;;;;;17.08;55.82;101388.44;4957960;28;6812;-70
2022/01/01 07:33:20;;;;;;;;;;;;;;;17.09;55.63;101384.16;4959672;28;6783;-70
2022/01/01 07:35:46;;;;;;;;;;;;;;;17.05;55.87;101372.81;4956300;28;7005;-70
2022/01/01 07:38:12;;;;;;;;;;;;;;;17.02;55.68;101383.06;4954511;28;7849;-70
2022/01/01 07:40:39;;;;;;;;;;;;;;;16.98;55.36;101375.97;4962877;28;7187;-71
2022/01/01 07:43:16;;;;;;;;;;;;;;;16.94;55.80;101385.31;4962161;28;7191;-70
2022/01/01 07:45:43;;;;;;;;;;;;;;;16.89;55.72;101396.31;4960195;28;7236;-70
2022/01/01 07:48:10;;;;;;;;;;;;;;;16.84;55.75;101397.88;4961747;28;7206;-70
2022/01/01 07:50:36;;;;;;;;;;;;;;;16.78;55.53;101396.81;4961760;28;6795;-71
2022/01/01 07:53:05;;;;;;;;;;;;;;;16.73;56.08;101400.03;4962309;28;7202;-71
2022/01/01 07:55:31;;;;;;;;;;;;;;;16.68;56.00;101394.69;4957281;28;6807;-71
2022/01/01 07:57:57;;;;;;;;;;;;;;;16.62;56.03;101403.09;4941897;28;9689;-71
2022/01/01 08:00:23;;;;;;;;;;;;;;;16.59;56.18;101407.25;4961783;28;6784;-71
2022/01/01 08:02:48;;;;;;;;;;;;;;;16.55;56.05;101411.44;4963736;28;6787;-71
2022/01/01 08:05:18;;;;;;;;;;;;;;;16.49;56.44;101403.44;4960565;28;7139;-71
2022/01/01 08:07:46;;;;;;;;;;;;;;;16.45;56.40;101401.53;4946227;28;7217;-70
2022/01/01 08:10:12;;;;;;;;;;;;;;;16.41;56.43;101400.53;4957459;28;8317;-71
2022/01/01 08:12:40;;;;;;;;;;;;;;;16.37;56.45;101393.47;4973666;28;6815;-71
2022/01/01 08:15:07;;;;;;;;;;;;;;;16.33;56.59;101392.47;4959045;28;6848;-71
2022/01/01 08:17:33;;;;;;;;;;;;;;;16.32;56.65;101393.31;4955934;28;7289;-71
2022/01/01 08:19:59;;;;;;;;;;;;;;;16.30;56.86;101400.13;4958879;28;6795;-71
2022/01/01 08:22:25;;;;;;;;;;;;;;;16.29;57.04;101398.34;4958892;28;6788;-71
2022/01/01 08:24:51;;;;;;;;;;;;;;;16.31;56.99;101396.72;4961117;28;6784;-71
2022/01/01 08:27:17;;;;;;;;;;;;;;;16.32;56.61;101398.47;4960240;28;6962;-71
2022/01/01 08:29:42;;;;;;;;;;;;;;;16.33;56.67;101399.38;4942588;28;6955;-70
2022/01/01 08:32:09;;;;;;;;;;;;;;;16.35;56.75;101402.91;4961619;28;6976;-70
2022/01/01 08:34:35;;;;;;;;;;;;;;;16.36;57.15;101396.91;4958720;28;9807;-70
2022/01/01 08:37:00;;;;;;;;;;;;;;;16.40;56.78;101395.31;4944470;28;6800;-70
2022/01/01 08:39:26;;;;;;;;;;;;;;;16.42;56.84;101391.97;4954876;28;6792;-70
2022/01/01 08:41:52;;;;;;;;;;;;;;;16.46;56.95;101390.38;4940467;28;6788;-71
2022/01/01 08:44:18;;;;;;;;;;;;;;;16.49;56.90;101391.38;4937658;28;6990;-71
2022/01/01 08:46:43;;;;;;;;;;;;;;;16.55;57.32;101395.03;4956225;28;7411;-71
2022/01/01 08:49:10;;;;;;;;;;;;;;;16.59;57.04;101392.63;4951772;28;7253;-71
2022/01/01 08:51:40;;;;;;;;;;;;;;;16.63;56.92;101389.31;4956598;28;6831;-71
2022/01/01 08:54:05;;;;;;;;;;;;;;;16.70;56.91;101394.75;4956071;28;7308;-71
2022/01/01 08:56:32;;;;;;;;;;;;;;;16.75;56.93;101395.78;4952476;28;6858;-71
2022/01/01 08:58:58;;;;;;;;;;;;;;;16.79;57.00;101384.75;4956814;28;7079;-71
2022/01/01 09:01:23;;;;;;;;;;;;;;;16.85;57.07;101395.34;4967723;28;6970;-71
2022/01/01 09:03:49;;;;;;;;;;;;;;;16.89;56.53;101391.16;4957811;28;6804;-71
2022/01/01 09:06:15;;;;;;;;;;;;;;;16.93;56.58;101396.50;4957382;28;6784;-71
2022/01/01 09:08:42;;;;;;;;;;;;;;;16.96;56.53;101387.97;4939660;28;7236;-71
2022/01/01 09:11:11;;;;;;;;;;;;;;;17.01;56.62;101395.94;4924697;28;7012;-71
2022/01/01 09:13:41;;;;;;;;;;;;;;;17.05;56.57;101397.84;4941723;28;7006;-71
2022/01/01 09:16:10;;;;;;;;;;;;;;;17.11;56.53;101397.19;4956905;28;7126;-72
2022/01/01 09:18:38;;;;;;;;;;;;;;;17.14;56.46;101392.09;4958494;28;6807;-71
2022/01/01 09:21:05;;;;;;;;;;;;;;;17.19;56.48;101395.72;4953167;28;7101;-71
2022/01/01 09:23:31;;;;;;;;;;;;;;;17.23;56.50;101395.03;4955806;28;6851;-71
2022/01/01 09:25:57;;;;;;;;;;;;;;;17.28;56.39;101390.03;4954533;28;6943;-71
2022/01/01 09:28:23;;;;;;;;;;;;;;;17.31;55.76;101383.25;4957817;28;7281;-71
2022/01/01 09:30:48;;;;;;;;;;;;;;;17.35;55.85;101389.44;4953662;28;6772;-71
2022/01/01 09:33:14;;;;;;;;;;;;;;;17.41;55.81;101391.34;4957994;28;7150;-71
2022/01/01 09:35:40;;;;;;;;;;;;;;;17.46;56.06;101397.56;4954253;28;7051;-71
2022/01/01 09:38:06;;;;;;;;;;;;;;;17.53;55.76;101391.78;4955815;28;6894;-71
2022/01/01 09:40:33;;;;;;;;;;;;;;;17.57;55.45;101393.63;4954795;28;6776;-71
2022/01/01 09:42:59;;;;;;;;;;;;;;;17.63;55.30;101396.44;4932230;28;6856;-71
2022/01/01 09:45:25;;;;;;;;;;;;;;;17.69;55.80;101387.13;4940499;28;7229;-71
2022/01/01 09:47:51;;;;;;;;;;;;;;;17.73;55.83;101391.59;4954190;28;7212;-71
2022/01/01 09:50:17;;;;;;;;;;;;;;;17.81;55.16;101386.66;4950283;28;7299;-71
2022/01/01 09:52:42;;;;;;;;;;;;;;;17.88;55.16;101389.53;4954296;28;8127;-71
2022/01/01 09:55:09;;;;;;;;;;;;;;;17.95;55.73;101380.22;4954720;28;6811;-71
2022/01/01 09:57:35;;;;;;;;;;;;;;;18.01;55.24;101385.63;4956239;28;6816;-71
2022/01/01 10:00:02;;;;;;;;;;;;;;;18.09;55.11;101391.09;4941363;28;6931;-71
2022/01/01 10:02:29;;;;;;;;;;;;;;;18.14;54.78;101386.94;4957054;28;6816;-71
2022/01/01 10:04:54;;;;;;;;;;;;;;;18.21;55.24;101385.44;4949590;28;6887;-71
2022/01/01 10:07:31;;;;;;;;;;;;;;;18.28;54.48;101386.50;4954198;28;7269;-71
2022/01/01 10:10:15;;;;;;;;;;;;;;;18.34;54.82;101389.28;4955453;28;7155;-71
2022/01/01 10:12:43;;;;;;;;;;;;;;;18.40;54.30;101384.28;4955551;28;6848;-71
2022/01/01 10:15:11;;;;;;;;;;;;;;;18.49;54.40;101385.41;4955388;28;7193;-71
2022/01/01 10:17:37;;;;;;;;;;;;;;;18.57;54.70;101387.41;4954289;28;6915;-71
2022/01/01 10:20:05;;;;;;;;;;;;;;;18.64;54.33;101387.59;4954032;28;6808;-71
2022/01/01 10:22:31;;;;;;;;;;;;;;;18.70;53.96;101383.47;4953851;28;7441;-71
2022/01/01 10:28:00;;;;;;;;;;;;;;;18.79;53.72;101379.41;4955865;28;7253;-71
2022/01/01 10:30:36;;;;;;;;;;;;;;;18.83;53.24;101379.53;4939808;28;7206;-71
2022/01/01 10:33:08;;;;;;;;;;;;;;;18.86;52.86;101377.00;4953726;28;6808;-71
2022/01/01 10:35:41;;;;;;;;;;;;;;;18.88;53.34;101377.97;4953846;28;6891;-72
2022/01/01 10:38:22;;;;;;;;;;;;;;;18.88;53.02;101358.88;4950268;28;8508;-71
2022/01/01 10:41:13;;;;;;;;;;;;;;;18.90;52.94;101365.00;4955757;28;6900;-71
2022/01/01 10:43:46;;;;;;;;;;;;;;;18.91;53.28;101351.19;4951044;28;7109;-71
2022/01/01 10:46:17;;;;;;;;;;;;;;;18.98;53.50;101344.47;4952461;28;7950;-71
2022/01/01 10:51:19;;;;;;;;;;;;;;;19.18;53.23;101334.63;4953723;28;7235;-71
2022/01/01 10:53:45;;;;;;;;;;;;;;;19.29;52.99;101328.00;4936798;28;6872;-71
2022/01/01 10:56:21;;;;;;;;;;;;;;;19.36;52.71;101323.88;4965832;28;7209;-71
2022/01/01 10:58:59;;;;;;;;;;;;;;;19.38;52.55;101327.41;4953267;28;7001;-71
2022/01/01 11:01:25;;;;;;;;;;;;;;;19.42;52.17;101313.63;4938194;28;6816;-71
2022/01/01 11:03:55;;;;;;;;;;;;;;;19.50;51.91;101319.00;4954137;28;6820;-71
2022/01/01 11:06:21;;;;;;;;;;;;;;;19.59;52.24;101309.69;4936669;28;6848;-71
2022/01/01 11:08:48;;;;;;;;;;;;;;;19.70;51.33;101313.44;4957415;28;7146;-71
2022/01/01 11:11:15;;;;;;;;;;;;;;;19.79;51.47;101302.41;4956315;28;7285;-71
2022/01/01 11:13:45;;;;;;;;;;;;;;;19.92;51.44;101293.19;4940386;28;6975;-71
2022/01/01 11:16:13;;;;;;;;;;;;;;;20.05;50.85;101295.25;4951573;28;6875;-71
2022/01/01 11:18:39;;;;;;;;;;;;;;;20.21;50.86;101285.19;4950333;28;6862;-71
2022/01/01 11:21:06;;;;;;;;;;;;;;;20.45;50.90;101271.81;4950221;28;7210;-71
2022/01/01 11:23:33;;;;;;;;;;;;;;;20.86;50.14;101275.25;4934722;28;7024;-71
2022/01/01 11:25:59;;;;;;;;;;;;;;;21.33;48.96;101263.94;4950823;28;6804;-71
2022/01/01 11:28:25;;;;;;;;;;;;;;;21.80;48.06;101256.91;4952484;28;8068;-71
2022/01/01 11:31:07;;;;;;;;;;;;;;;22.17;47.61;101257.44;4954587;28;6840;-71
2022/01/01 11:33:40;;;;;;;;;;;;;;;22.43;46.39;101244.69;4952211;28;7023;-71
2022/01/01 11:36:07;;;;;;;;;;;;;;;22.61;46.37;101249.31;4953935;28;7455;-71
2022/01/01 11:38:35;;;;;;;;;;;;;;;22.79;46.27;101244.28;4937714;28;6985;-71
2022/01/01 11:41:09;;;;;;;;;;;;;;;22.99;45.33;101239.25;4952342;28;6880;-71
2022/01/01 11:43:43;;;;;;;;;;;;;;;23.33;45.38;101242.19;4953993;28;6812;-71
2022/01/01 11:46:20;;;;;;;;;;;;;;;23.66;43.93;101242.47;4951434;28;7764;-71
2022/01/01 11:49:03;;;;;;;;;;;;;;;23.93;43.98;101235.66;4952081;28;7013;-71
2022/01/01 11:51:39;;;;;;;;;;;;;;;24.12;42.91;101227.06;4950792;28;7002;-71
2022/01/01 11:54:30;;;;;;;;;;;;;;;24.10;42.61;101230.53;4951540;28;6975;-72
2022/01/01 11:57:07;;;;;;;;;;;;;;;23.93;43.29;101219.94;4947792;28;6836;-71
2022/01/01 11:59:47;;;;;;;;;;;;;;;23.77;43.24;101222.47;4950643;28;6816;-71
2022/01/01 12:02:18;;;;;;;;;;;;;;;23.54;43.17;101222.31;4944940;28;7891;-71
2022/01/01 12:04:46;;;;;;;;;;;;;;;23.30;43.46;101218.66;4956042;28;7075;-71
2022/01/01 12:07:18;;;;;;;;;;;;;;;23.11;43.60;101217.56;4953761;28;7162;-71
2022/01/01 12:10:05;;;;;;;;;;;;;;;23.04;44.01;101208.81;4953979;28;7126;-71
2022/01/01 12:12:44;;;;;;;;;;;;;;;22.89;43.70;101201.69;4950703;28;6986;-71
2022/01/01 12:15:23;;;;;;;;;;;;;;;22.58;44.16;101201.38;4948591;28;6812;-71
2022/01/01 12:17:53;;;;;;;;;;;;;;;22.23;44.74;101192.25;4954209;28;6904;-72
2022/01/01 12:20:26;;;;;;;;;;;;;;;21.95;45.23;101196.22;4948562;28;6816;-71
2022/01/01 12:22:54;;;;;;;;;;;;;;;21.70;45.79;101194.16;4948858;28;6876;-71
2022/01/01 12:25:31;;;;;;;;;;;;;;;21.51;46.35;101199.06;4949072;28;6820;-71
2022/01/01 12:28:02;;;;;;;;;;;;;;;21.38;46.66;101194.50;4967149;28;7092;-71
2022/01/01 12:30:45;;;;;;;;;;;;;;;21.28;46.82;101200.44;4954553;28;7335;-71
2022/01/01 12:33:46;;;;;;;;;;;;;;;21.21;46.82;101205.53;4952087;28;6804;-71
2022/01/01 12:36:22;;;;;;;;;;;;;;;21.19;47.44;101209.84;4955521;28;7432;-71
2022/01/01 12:38:57;;;;;;;;;;;;;;;21.18;46.99;101208.09;4956160;28;7057;-71
2022/01/01 12:41:42;;;;;;;;;;;;;;;21.16;46.54;101208.91;4954559;28;6911;-71
2022/01/01 12:44:13;;;;;;;;;;;;;;;21.10;46.57;101196.66;4944873;28;6884;-70
2022/01/01 12:46:49;;;;;;;;;;;;;;;21.05;46.84;101203.50;4960106;28;6953;-70
2022/01/01 12:49:16;;;;;;;;;;;;;;;21.00;46.92;101199.97;4955308;28;7058;-71
2022/01/01 12:51:43;;;;;;;;;;;;;;;20.95;46.90;101200.75;4959982;28;6800;-71
2022/01/01 12:54:18;;;;;;;;;;;;;;;20.92;47.22;101198.09;4958748;28;6832;-71
2022/01/01 12:56:46;;;;;;;;;;;;;;;20.89;47.44;101198.03;4961735;28;7064;-71